createdAt,value
2022-08-14T00:00:06.237Z,47.02
2022-08-14T00:02:40.499Z,47.33
2022-08-14T00:05:12.238Z,47.48
2022-08-14T00:07:42.075Z,47.43
2022-08-14T00:10:51.342Z,47.66
2022-08-14T00:13:07.137Z,47.85
2022-08-14T00:15:44.400Z,48.17
2022-08-14T00:18:30.756Z,48.20
2022-08-14T00:21:11.156Z,48.74
2022-08-14T00:23:41.520Z,48.72
2022-08-14T00:26:22.954Z,49.00
2022-08-14T00:28:52.747Z,49.22
2022-08-14T00:31:35.293Z,49.51
2022-08-14T00:34:37.157Z,49.68
2022-08-14T00:36:59.336Z,49.86
2022-08-14T00:39:28.098Z,49.84
2022-08-14T00:42:01.025Z,50.35
2022-08-14T00:44:32.474Z,50.39
2022-08-14T00:47:03.478Z,50.97
2022-08-14T00:49:38.094Z,51.06
2022-08-14T00:52:14.226Z,51.12
2022-08-14T00:54:57.907Z,51.46
2022-08-14T00:57:31.358Z,51.48
2022-08-14T01:00:00.709Z,51.75
2022-08-14T01:02:31.693Z,51.74
2022-08-14T01:05:02.799Z,51.81
2022-08-14T01:07:38.996Z,51.83
2022-08-14T01:10:21.731Z,51.73
2022-08-14T01:12:54.463Z,52.05
2022-08-14T01:15:31.729Z,52.34
2022-08-14T01:18:29.376Z,52.25
2022-08-14T01:21:07.333Z,52.77
2022-08-14T01:23:46.774Z,53.33
2022-08-14T01:26:34.536Z,53.32
2022-08-14T01:29:06.809Z,53.93
2022-08-14T01:31:43.364Z,54.20
2022-08-14T01:35:21.073Z,54.08
2022-08-14T01:37:04.680Z,54.13
2022-08-14T01:39:38.130Z,54.12
2022-08-14T01:42:07.367Z,54.39
2022-08-14T01:44:38.904Z,54.33
2022-08-14T01:47:21.560Z,54.59
2022-08-14T01:50:01.286Z,54.74
2022-08-14T01:52:59.224Z,54.74
2022-08-14T01:55:31.722Z,54.79
2022-08-14T01:58:19.644Z,54.85
2022-08-14T02:00:54.806Z,55.04
2022-08-14T02:03:29.613Z,55.07
2022-08-14T02:06:04.021Z,55.32
2022-08-14T02:08:53.271Z,55.41
2022-08-14T02:11:26.843Z,55.59
2022-08-14T02:14:07.130Z,56.22
2022-08-14T02:16:39.557Z,56.31
2022-08-14T02:19:10.262Z,56.32
2022-08-14T02:21:46.948Z,56.44
2022-08-14T02:24:38.950Z,56.25
2022-08-14T02:28:23.308Z,56.68
2022-08-14T02:30:00.268Z,57.09
2022-08-14T02:32:36.728Z,57.35
2022-08-14T02:35:17.838Z,57.25
2022-08-14T02:37:49.066Z,57.43
2022-08-14T02:40:19.253Z,56.85
2022-08-14T02:42:55.156Z,56.72
2022-08-14T02:45:33.404Z,56.94
2022-08-14T02:48:10.590Z,56.99
2022-08-14T02:50:57.085Z,57.14
2022-08-14T02:53:30.038Z,56.77
2022-08-14T02:56:02.710Z,57.61
2022-08-14T02:58:38.659Z,57.63
2022-08-14T03:01:11.421Z,57.54
2022-08-14T03:03:40.055Z,57.82
2022-08-14T03:06:10.530Z,57.84
2022-08-14T03:08:45.895Z,58.30
2022-08-14T03:11:15.649Z,58.10
2022-08-14T03:13:51.503Z,58.17
2022-08-14T03:16:26.895Z,58.43
2022-08-14T03:18:58.354Z,58.37
2022-08-14T03:21:30.110Z,58.69
2022-08-14T03:24:16.602Z,58.73
2022-08-14T03:26:57.623Z,59.18
2022-08-14T03:29:29.527Z,58.91
2022-08-14T03:31:59.392Z,58.37
2022-08-14T03:34:52.809Z,58.62
2022-08-14T03:37:37.679Z,58.40
2022-08-14T03:40:11.206Z,57.92
2022-08-14T03:42:40.552Z,57.65
2022-08-14T03:45:18.905Z,57.46
2022-08-14T03:48:01.910Z,58.21
2022-08-14T03:50:32.477Z,58.11
2022-08-14T03:53:02.377Z,58.29
2022-08-14T03:55:31.299Z,58.37
2022-08-14T03:58:01.036Z,59.07
2022-08-14T04:00:42.949Z,60.25
2022-08-14T04:03:23.508Z,60.85
2022-08-14T04:05:52.828Z,59.80
2022-08-14T04:08:29.691Z,59.53
2022-08-14T04:11:01.583Z,59.96
2022-08-14T04:13:31.892Z,59.04
2022-08-14T04:16:08.686Z,58.93
2022-08-14T04:18:42.314Z,58.41
2022-08-14T04:21:11.628Z,58.48
2022-08-14T04:23:40.793Z,58.12
2022-08-14T04:26:14.382Z,58.20
2022-08-14T04:29:06.767Z,58.09
2022-08-14T04:32:58.999Z,58.19
2022-08-14T04:34:27.803Z,58.37
2022-08-14T04:37:22.086Z,58.49
2022-08-14T04:40:12.829Z,58.99
2022-08-14T04:43:01.818Z,59.58
2022-08-14T04:45:38.746Z,60.37
2022-08-14T04:48:39.319Z,60.63
2022-08-14T04:51:09.931Z,60.76
2022-08-14T04:53:44.809Z,60.00
2022-08-14T04:56:31.200Z,60.20
2022-08-14T04:59:10.287Z,59.36
2022-08-14T05:01:48.902Z,59.66
2022-08-14T05:04:21.816Z,60.15
2022-08-14T05:06:53.459Z,59.91
2022-08-14T05:09:24.710Z,60.07
2022-08-14T05:13:10.658Z,59.61
2022-08-14T05:14:53.611Z,58.06
2022-08-14T05:17:31.928Z,56.55
2022-08-14T05:21:54.220Z,54.43
2022-08-14T05:23:04.537Z,52.89
2022-08-14T05:25:34.127Z,51.24
2022-08-14T05:28:16.337Z,49.47
2022-08-14T05:30:46.362Z,48.88
2022-08-14T05:33:16.247Z,48.88
2022-08-14T05:35:46.727Z,49.20
2022-08-14T05:38:30.701Z,48.97
2022-08-14T05:40:59.961Z,49.31
2022-08-14T05:43:40.916Z,49.43
2022-08-14T05:46:15.405Z,51.85
2022-08-14T05:48:44.061Z,54.92
2022-08-14T05:51:15.291Z,56.99
2022-08-14T05:53:44.082Z,57.84
2022-08-14T05:56:30.812Z,58.46
2022-08-14T05:59:00.851Z,57.56
2022-08-14T06:01:31.660Z,56.25
2022-08-14T06:04:00.400Z,53.82
2022-08-14T06:06:33.776Z,52.83
2022-08-14T06:09:05.731Z,52.01
2022-08-14T06:11:38.557Z,50.95
2022-08-14T06:14:20.616Z,50.59
2022-08-14T06:16:49.793Z,51.14
2022-08-14T06:19:23.157Z,49.45
2022-08-14T06:21:58.248Z,50.27
2022-08-14T06:24:30.641Z,50.67
2022-08-14T06:27:04.376Z,50.32
2022-08-14T06:29:35.012Z,48.72
2022-08-14T06:32:36.681Z,48.94
2022-08-14T06:35:02.421Z,48.84
2022-08-14T06:37:46.994Z,48.51
2022-08-14T06:40:27.997Z,46.30
2022-08-14T06:43:00.549Z,45.44
2022-08-14T06:45:32.762Z,45.04
2022-08-14T06:48:03.173Z,44.23
2022-08-14T06:50:34.816Z,44.69
2022-08-14T06:53:05.245Z,44.59
2022-08-14T06:55:34.123Z,44.66
2022-08-14T06:58:05.940Z,44.72
2022-08-14T07:01:10.562Z,44.53
2022-08-14T07:03:58.140Z,43.68
2022-08-14T07:06:46.206Z,42.90
2022-08-14T07:09:22.498Z,42.48
2022-08-14T07:11:52.059Z,42.73
2022-08-14T07:14:20.575Z,42.98
2022-08-14T07:16:49.215Z,43.34
2022-08-14T07:19:21.132Z,44.15
2022-08-14T07:21:50.340Z,42.80
2022-08-14T07:24:21.642Z,42.73
2022-08-14T07:26:50.708Z,42.32
2022-08-14T07:29:24.080Z,42.15
2022-08-14T07:31:54.777Z,41.21
2022-08-14T07:34:36.646Z,41.73
2022-08-14T07:37:10.665Z,41.44
2022-08-14T07:39:43.482Z,39.65
2022-08-14T07:42:12.939Z,38.52
2022-08-14T07:44:46.149Z,38.75
2022-08-14T07:47:17.712Z,38.10
2022-08-14T07:50:00.221Z,38.20
2022-08-14T07:52:31.920Z,37.54
2022-08-14T07:55:02.381Z,38.32
2022-08-14T07:57:30.800Z,38.47
2022-08-14T07:59:59.303Z,38.15
2022-08-14T08:02:32.867Z,36.68
2022-08-14T08:05:02.763Z,35.90
2022-08-14T08:07:32.374Z,37.03
2022-08-14T08:10:46.837Z,36.72
2022-08-14T08:13:22.333Z,33.73
2022-08-14T08:15:56.733Z,33.76
2022-08-14T08:18:27.365Z,33.14
2022-08-14T08:20:59.515Z,31.76
2022-08-14T08:23:39.963Z,33.08
2022-08-14T08:26:10.784Z,32.06
2022-08-14T08:28:43.657Z,33.00
2022-08-14T08:31:13.337Z,32.78
2022-08-14T08:33:43.608Z,33.69
2022-08-14T08:36:18.707Z,31.81
2022-08-14T08:39:16.369Z,32.74
2022-08-14T08:41:45.145Z,31.67
2022-08-14T08:44:17.290Z,31.66
2022-08-14T08:47:06.097Z,31.92
2022-08-14T08:49:43.147Z,32.10
2022-08-14T08:52:25.092Z,32.63
2022-08-14T08:55:00.750Z,32.76
2022-08-14T08:57:38.068Z,33.31
2022-08-14T09:00:25.477Z,32.71
2022-08-14T09:02:57.699Z,32.60
2022-08-14T09:05:27.449Z,33.59
2022-08-14T09:07:57.019Z,32.79
2022-08-14T09:10:27.227Z,31.18
2022-08-14T09:12:57.771Z,30.44
2022-08-14T09:15:36.555Z,31.30
2022-08-14T09:18:05.597Z,32.18
2022-08-14T09:20:34.437Z,32.00
2022-08-14T09:23:06.019Z,31.17
2022-08-14T09:26:00.944Z,31.08
2022-08-14T09:28:26.220Z,30.05
2022-08-14T09:30:57.899Z,30.86
2022-08-14T09:34:09.430Z,31.04
2022-08-14T09:37:15.511Z,31.42
2022-08-14T09:39:58.786Z,31.09
2022-08-14T09:43:01.799Z,29.77
2022-08-14T09:45:40.029Z,30.36
2022-08-14T09:48:29.966Z,30.75
2022-08-14T09:54:19.525Z,30.78
2022-08-14T09:56:31.749Z,29.91
2022-08-14T09:59:15.341Z,29.54
2022-08-14T10:01:52.886Z,31.25
2022-08-14T10:04:33.780Z,29.22
2022-08-14T10:07:03.805Z,29.54
2022-08-14T10:09:33.609Z,30.19
2022-08-14T10:12:05.052Z,29.96
2022-08-14T10:14:37.158Z,29.50
2022-08-14T10:17:08.830Z,29.55
2022-08-14T10:19:48.923Z,29.21
2022-08-14T10:23:11.982Z,29.39
2022-08-14T10:25:14.268Z,29.58
2022-08-14T10:27:46.463Z,29.35
2022-08-14T10:30:22.478Z,28.85
2022-08-14T10:32:55.619Z,28.59
2022-08-14T10:35:31.124Z,29.00
2022-08-14T10:38:07.377Z,29.35
2022-08-14T10:40:37.605Z,29.31
2022-08-14T10:43:23.389Z,29.47
2022-08-14T10:46:03.937Z,28.48
2022-08-14T10:49:00.917Z,29.35
2022-08-14T10:51:36.103Z,27.89
2022-08-14T10:54:35.027Z,27.61
2022-08-14T10:56:59.719Z,27.97
2022-08-14T10:59:30.619Z,28.15
2022-08-14T11:02:00.403Z,29.44
2022-08-14T11:04:31.084Z,27.66
2022-08-14T11:07:00.383Z,29.08
2022-08-14T11:09:32.028Z,28.78
2022-08-14T11:12:34.094Z,27.22
2022-08-14T11:14:59.869Z,26.81
2022-08-14T11:17:33.094Z,26.60
2022-08-14T11:20:05.611Z,27.00
2022-08-14T11:23:03.524Z,25.62
2022-08-14T11:25:25.683Z,29.58
2022-08-14T11:28:11.005Z,29.04
2022-08-14T11:30:50.811Z,27.41
2022-08-14T11:33:24.683Z,25.86
2022-08-14T11:35:59.611Z,25.66
2022-08-14T11:38:29.697Z,26.11
2022-08-14T11:41:00.434Z,26.82
2022-08-14T11:43:30.546Z,25.59
2022-08-14T11:46:03.859Z,27.98
2022-08-14T11:49:02.165Z,29.06
2022-08-14T11:51:30.751Z,25.85
2022-08-14T11:54:08.195Z,25.11
2022-08-14T11:56:37.676Z,26.11
2022-08-14T11:59:10.294Z,25.12
2022-08-14T12:01:41.154Z,25.17
2022-08-14T12:04:31.727Z,27.39
2022-08-14T12:07:02.788Z,24.01
2022-08-14T12:09:34.944Z,24.50
2022-08-14T12:12:16.138Z,24.60
2022-08-14T12:15:03.474Z,27.76
2022-08-14T12:17:47.460Z,27.47
2022-08-14T12:20:29.944Z,25.33
2022-08-14T12:23:05.170Z,24.43
2022-08-14T12:25:36.281Z,24.53
2022-08-14T12:28:27.244Z,25.46
2022-08-14T12:31:13.639Z,24.36
2022-08-14T12:33:47.024Z,25.35
2022-08-14T12:36:23.128Z,25.56
2022-08-14T12:38:55.509Z,25.25
2022-08-14T12:41:34.489Z,25.85
2022-08-14T12:44:08.406Z,24.82
2022-08-14T12:46:40.655Z,25.33
2022-08-14T12:49:16.141Z,27.41
2022-08-14T12:51:45.610Z,25.53
2022-08-14T12:54:27.988Z,25.73
2022-08-14T12:57:08.101Z,27.81
2022-08-14T12:59:42.699Z,28.65
2022-08-14T13:02:26.585Z,25.70
2022-08-14T13:04:58.009Z,26.18
2022-08-14T13:07:32.534Z,26.19
2022-08-14T13:10:45.702Z,25.63
2022-08-14T13:13:13.247Z,25.54
2022-08-14T13:15:45.315Z,25.62
2022-08-14T13:18:17.106Z,25.61
2022-08-14T13:20:48.146Z,25.73
2022-08-14T13:23:30.680Z,26.26
2022-08-14T13:26:03.095Z,25.94
2022-08-14T13:28:33.851Z,25.73
2022-08-14T13:31:09.121Z,26.20
2022-08-14T13:33:41.276Z,26.93
2022-08-14T13:36:23.654Z,28.92
2022-08-14T13:38:56.200Z,28.58
2022-08-14T13:41:34.680Z,27.33
2022-08-14T13:44:07.897Z,27.42
2022-08-14T13:46:44.433Z,26.33
2022-08-14T13:49:14.921Z,25.67
2022-08-14T13:51:50.546Z,26.09
2022-08-14T13:54:23.164Z,26.44
2022-08-14T13:56:53.207Z,26.47
2022-08-14T13:59:38.231Z,26.50
2022-08-14T14:02:09.313Z,28.70
2022-08-14T14:04:42.711Z,27.37
2022-08-14T14:07:17.606Z,29.09
2022-08-14T14:09:52.618Z,30.08
2022-08-14T14:12:38.101Z,27.14
2022-08-14T14:15:13.745Z,27.57
2022-08-14T14:17:46.436Z,27.13
2022-08-14T14:20:35.310Z,28.80
2022-08-14T14:23:11.838Z,27.40
2022-08-14T14:25:48.061Z,28.20
2022-08-14T14:28:24.966Z,28.36
2022-08-14T14:30:57.147Z,30.06
2022-08-14T14:33:47.353Z,27.35
2022-08-14T14:36:21.555Z,29.27
2022-08-14T14:38:56.035Z,27.80
2022-08-14T14:41:38.126Z,26.94
2022-08-14T14:44:13.396Z,26.93
2022-08-14T14:46:51.030Z,26.90
2022-08-14T14:49:25.945Z,26.87
2022-08-14T14:52:23.482Z,26.72
2022-08-14T14:54:58.542Z,26.96
2022-08-14T14:57:34.631Z,27.39
2022-08-14T15:00:12.720Z,27.12
2022-08-14T15:02:45.370Z,27.92
2022-08-14T15:05:17.259Z,27.67
2022-08-14T15:07:49.830Z,28.04
2022-08-14T15:10:27.638Z,29.21
2022-08-14T15:13:03.641Z,28.33
2022-08-14T15:15:37.339Z,28.55
2022-08-14T15:18:36.193Z,28.39
2022-08-14T15:20:58.099Z,28.43
2022-08-14T15:23:32.500Z,27.45
2022-08-14T15:26:27.702Z,27.44
2022-08-14T15:29:04.904Z,27.54
2022-08-14T15:31:37.113Z,27.89
2022-08-14T15:34:46.168Z,26.88
2022-08-14T15:37:03.151Z,27.20
2022-08-14T15:39:34.065Z,26.98
2022-08-14T15:42:14.892Z,27.17
2022-08-14T15:44:58.033Z,27.40
2022-08-14T15:47:34.920Z,27.25
2022-08-14T15:50:09.610Z,26.91
2022-08-14T15:52:42.981Z,27.46
2022-08-14T15:55:16.353Z,27.20
2022-08-14T15:58:01.358Z,27.00
2022-08-14T16:00:49.901Z,28.13
2022-08-14T16:03:27.298Z,27.54
2022-08-14T16:06:11.194Z,26.78
2022-08-14T16:08:45.006Z,27.10
2022-08-14T16:11:16.113Z,26.85
2022-08-14T16:13:47.804Z,28.59
2022-08-14T16:16:48.005Z,28.12
2022-08-14T16:19:12.470Z,27.62
2022-08-14T16:22:02.648Z,27.53
2022-08-14T16:24:34.727Z,27.04
2022-08-14T16:27:05.886Z,27.51
2022-08-14T16:29:39.875Z,27.32
2022-08-14T16:32:33.121Z,27.82
2022-08-14T16:35:03.806Z,27.55
2022-08-14T16:37:34.133Z,27.53
2022-08-14T16:40:05.341Z,27.32
2022-08-14T16:43:03.141Z,28.33
2022-08-14T16:45:32.169Z,28.52
2022-08-14T16:48:02.464Z,28.35
2022-08-14T16:50:40.417Z,28.26
2022-08-14T16:53:17.160Z,27.54
2022-08-14T16:55:53.615Z,27.69
2022-08-14T16:58:27.211Z,27.60
2022-08-14T17:01:24.685Z,29.62
2022-08-14T17:04:04.703Z,29.98
2022-08-14T17:06:48.646Z,28.40
2022-08-14T17:09:31.821Z,28.16
2022-08-14T17:12:07.549Z,28.27
2022-08-14T17:15:01.630Z,27.86
2022-08-14T17:17:52.129Z,27.87
2022-08-14T17:20:53.870Z,27.77
2022-08-14T17:23:17.836Z,29.60
2022-08-14T17:25:50.950Z,27.85
2022-08-14T17:28:51.662Z,28.57
2022-08-14T17:31:10.318Z,28.32
2022-08-14T17:33:44.537Z,28.61
2022-08-14T17:36:24.491Z,28.27
2022-08-14T17:39:06.443Z,29.02
2022-08-14T17:41:43.822Z,30.83
2022-08-14T17:44:34.002Z,32.08
2022-08-14T17:47:10.757Z,30.78
2022-08-14T17:49:52.233Z,30.21
2022-08-14T17:52:34.267Z,32.60
2022-08-14T17:55:09.863Z,31.04
2022-08-14T17:57:42.650Z,32.86
2022-08-14T18:00:16.551Z,32.35
2022-08-14T18:02:50.756Z,31.06
2022-08-14T18:05:23.331Z,32.82
2022-08-14T18:08:32.845Z,30.74
2022-08-14T18:11:02.189Z,32.38
2022-08-14T18:13:52.002Z,32.38
2022-08-14T18:16:22.376Z,30.47
2022-08-14T18:18:52.000Z,31.77
2022-08-14T18:21:39.688Z,33.16
2022-08-14T18:24:20.146Z,32.19
2022-08-14T18:27:08.726Z,33.70
2022-08-14T18:29:55.316Z,34.07
2022-08-14T18:32:47.406Z,32.49
2022-08-14T18:35:46.131Z,34.36
2022-08-14T18:38:25.875Z,34.95
2022-08-14T18:41:36.099Z,33.24
2022-08-14T18:44:10.368Z,33.57
2022-08-14T18:47:22.790Z,34.06
2022-08-14T18:50:26.988Z,33.82
2022-08-14T18:52:54.714Z,34.27
2022-08-14T18:55:53.708Z,34.82
2022-08-14T18:58:48.386Z,35.43
2022-08-14T19:01:29.807Z,34.56
2022-08-14T19:04:01.556Z,35.26
2022-08-14T19:06:56.321Z,35.47
2022-08-14T19:09:58.249Z,34.35
2022-08-14T19:13:04.880Z,34.36
2022-08-14T19:15:36.612Z,34.50
2022-08-14T19:18:27.999Z,33.21
2022-08-14T19:21:00.524Z,33.87
2022-08-14T19:23:43.944Z,33.29
2022-08-14T19:26:35.405Z,33.33
2022-08-14T19:29:38.237Z,33.71
2022-08-14T19:32:40.176Z,33.21
2022-08-14T19:35:49.569Z,34.06
2022-08-14T19:38:54.745Z,33.52
2022-08-14T19:41:34.127Z,33.88
2022-08-14T19:44:14.183Z,33.80
2022-08-14T19:46:59.701Z,34.19
2022-08-14T19:50:25.094Z,36.43
2022-08-14T19:52:37.018Z,35.43
2022-08-14T19:55:16.929Z,34.60
2022-08-14T19:57:52.434Z,33.88
2022-08-14T20:00:30.162Z,34.48
2022-08-14T20:03:09.910Z,34.54
2022-08-14T20:05:42.912Z,35.00
2022-08-14T20:09:06.468Z,35.05
2022-08-14T20:11:20.519Z,35.10
2022-08-14T20:14:10.229Z,35.24
2022-08-14T20:16:41.712Z,35.41
2022-08-14T20:19:19.545Z,35.39
2022-08-14T20:22:00.726Z,35.70
2022-08-14T20:24:44.315Z,35.87
2022-08-14T20:27:33.251Z,35.80
2022-08-14T20:30:34.009Z,35.91
2022-08-14T20:33:08.051Z,36.06
2022-08-14T20:35:47.560Z,36.02
2022-08-14T20:38:28.979Z,36.33
2022-08-14T20:41:05.794Z,36.27
2022-08-14T20:43:55.800Z,36.03
2022-08-14T20:46:31.210Z,36.48
2022-08-14T20:49:03.178Z,36.55
2022-08-14T20:51:43.621Z,36.88
2022-08-14T20:54:34.219Z,36.85
2022-08-14T20:57:12.091Z,36.71
2022-08-14T20:59:44.762Z,37.32
2022-08-14T21:02:38.692Z,37.58
2022-08-14T21:05:33.510Z,37.45
2022-08-14T21:08:09.676Z,37.62
2022-08-14T21:10:54.947Z,37.89
2022-08-14T21:14:18.950Z,37.67
2022-08-14T21:16:25.759Z,37.77
2022-08-14T21:19:05.100Z,38.07
2022-08-14T21:21:41.261Z,37.62
2022-08-14T21:24:38.791Z,37.86
2022-08-14T21:27:12.847Z,37.93
2022-08-14T21:29:55.984Z,37.92
2022-08-14T21:32:46.855Z,37.97
2022-08-14T21:35:22.757Z,38.11
2022-08-14T21:37:53.846Z,37.84
2022-08-14T21:40:40.283Z,38.06
2022-08-14T21:43:14.928Z,38.23
2022-08-14T21:45:53.516Z,38.58
2022-08-14T21:48:25.299Z,39.05
2022-08-14T21:51:01.170Z,38.80
2022-08-14T21:53:58.200Z,38.79
2022-08-14T21:56:38.643Z,39.06
2022-08-14T21:59:17.773Z,39.39
2022-08-14T22:02:00.577Z,39.56
2022-08-14T22:04:39.965Z,39.24
2022-08-14T22:07:17.270Z,39.18
2022-08-14T22:09:55.184Z,39.16
2022-08-14T22:12:45.459Z,39.41
2022-08-14T22:15:17.903Z,39.43
2022-08-14T22:17:52.346Z,39.48
2022-08-14T22:20:25.590Z,40.13
2022-08-14T22:22:56.207Z,40.01
2022-08-14T22:25:33.551Z,40.13
2022-08-14T22:28:05.732Z,39.80
2022-08-14T22:30:35.814Z,40.09
2022-08-14T22:33:05.885Z,40.04
2022-08-14T22:35:38.890Z,40.07
2022-08-14T22:38:35.834Z,40.41
2022-08-14T22:41:09.665Z,40.46
2022-08-14T22:43:45.780Z,40.38
2022-08-14T22:46:20.445Z,40.57
2022-08-14T22:48:51.089Z,40.65
2022-08-14T22:51:23.068Z,40.76
2022-08-14T22:53:55.618Z,40.66
2022-08-14T22:56:30.047Z,40.68
2022-08-14T22:59:02.205Z,40.40
2022-08-14T23:01:55.837Z,40.45
2022-08-14T23:04:35.212Z,41.03
2022-08-14T23:07:14.405Z,41.11
2022-08-14T23:09:56.285Z,40.88
2022-08-14T23:12:29.699Z,41.88
2022-08-14T23:15:00.410Z,41.97
2022-08-14T23:17:39.178Z,42.70
2022-08-14T23:20:18.765Z,41.00
2022-08-14T23:22:51.845Z,40.13
2022-08-14T23:25:45.790Z,40.26
2022-08-14T23:28:33.375Z,40.99
2022-08-14T23:31:14.054Z,41.16
2022-08-14T23:33:52.036Z,41.45
2022-08-14T23:36:32.336Z,40.43
2022-08-14T23:39:12.385Z,39.87
2022-08-14T23:41:53.859Z,40.62
2022-08-14T23:44:24.477Z,40.39
2022-08-14T23:46:56.962Z,40.79
2022-08-14T23:49:59.995Z,40.76
2022-08-14T23:52:56.111Z,41.39
2022-08-14T23:55:11.063Z,40.99
2022-08-14T23:57:44.212Z,40.58
